Time;durP1;ratioP1;P1;durP2;ratioP2;P2;SDS_P1;SDS_P2;PMS_P1;PMS_P2;Temp;Humidity;BMP_temperature;BMP_pressure;BME280_temperature;BME280_humidity;BME280_pressure;Samples;Min_cycle;Max_cycle;Signal;HPM_P1;HPM_P2
2022/05/27 00:01:55;;;;;;;9.33;7.10;;;13.90;61.30;;;;;;5029230;28;20501;-52
2022/05/27 00:04:21;;;;;;;7.77;6.97;;;13.90;59.40;;;;;;5031413;28;20557;-53
2022/05/27 00:06:48;;;;;;;7.77;6.97;;;13.90;57.10;;;;;;5030240;28;20490;-53
2022/05/27 00:09:14;;;;;;;14.70;8.23;;;13.80;56.40;;;;;;5026373;28;20550;-52
2022/05/27 00:11:41;;;;;;;10.23;7.97;;;13.80;55.20;;;;;;5028304;28;20537;-53
2022/05/27 00:14:08;;;;;;;14.30;8.20;;;13.80;53.90;;;;;;5029224;28;20605;-53
2022/05/27 00:16:35;;;;;;;9.33;8.40;;;13.80;51.30;;;;;;5030998;28;20881;-52
2022/05/27 00:19:02;;;;;;;9.27;8.37;;;13.80;49.10;;;;;;5030324;28;20533;-52
2022/05/27 00:21:29;;;;;;;13.70;8.20;;;13.80;46.90;;;;;;5028854;28;20963;-52
2022/05/27 00:23:56;;;;;;;12.43;7.90;;;13.80;43.50;;;;;;5030169;28;20566;-52
2022/05/27 00:26:22;;;;;;;9.70;8.57;;;13.80;41.30;;;;;;5031396;28;20517;-53
2022/05/27 00:28:49;;;;;;;16.40;6.83;;;13.80;39.70;;;;;;5028933;28;20899;-52
2022/05/27 00:31:18;;;;;;;12.70;8.00;;;13.80;38.00;;;;;;5028845;28;20534;-52
2022/05/27 00:33:46;;;;;;;10.47;7.10;;;13.80;37.30;;;;;;5030714;28;20552;-52
2022/05/27 00:36:14;;;;;;;7.60;6.90;;;13.80;33.20;;;;;;5031054;28;20474;-53
2022/05/27 00:38:42;;;;;;;7.10;6.50;;;13.70;28.00;;;;;;5030904;28;20570;-52
2022/05/27 00:41:09;;;;;;;7.27;6.57;;;13.70;27.00;;;;;;5028982;28;20545;-52
2022/05/27 00:43:36;;;;;;;7.57;6.60;;;13.80;22.90;;;;;;5031465;28;20562;-52
2022/05/27 00:46:07;;;;;;;7.30;6.60;;;13.80;78.00;;;;;;5033501;28;20550;-53
2022/05/27 00:48:37;;;;;;;7.93;7.33;;;13.80;99.90;;;;;;5026824;28;21019;-52
2022/05/27 00:51:08;;;;;;;7.50;6.80;;;13.80;99.90;;;;;;5032817;28;20498;-52
2022/05/27 00:53:39;;;;;;;7.57;6.00;;;13.80;99.90;;;;;;5032968;28;20518;-52
2022/05/27 00:56:09;;;;;;;6.80;6.17;;;13.70;99.90;;;;;;5032106;28;20473;-52
2022/05/27 00:58:41;;;;;;;7.53;6.90;;;13.80;99.90;;;;;;5032671;28;20794;-52
2022/05/27 01:01:08;;;;;;;6.67;5.60;;;13.80;99.90;;;;;;5030090;28;20498;-52
2022/05/27 01:03:36;;;;;;;6.63;5.93;;;13.80;99.90;;;;;;5033218;28;20463;-52
2022/05/27 01:06:02;;;;;;;10.40;5.90;;;13.80;99.90;;;;;;5031272;28;20562;-52
2022/05/27 01:08:31;;;;;;;7.17;6.00;;;13.80;99.90;;;;;;5033199;28;20575;-52
2022/05/27 01:11:11;;;;;;;7.43;6.60;;;13.80;99.90;;;;;;5029648;28;20492;-52
2022/05/27 01:13:48;;;;;;;6.53;5.77;;;13.80;99.90;;;;;;5030888;28;20696;-52
2022/05/27 01:16:28;;;;;;;8.60;5.63;;;13.90;99.90;;;;;;5034293;28;20501;-51
2022/05/27 01:22:12;;;;;;;5.40;4.90;;;13.90;99.90;;;;;;5031181;28;20453;-52
2022/05/27 01:25:03;;;;;;;10.57;5.87;;;13.90;99.90;;;;;;5032150;28;20482;-52
2022/05/27 01:27:49;;;;;;;6.80;6.07;;;13.90;99.90;;;;;;5020494;28;20573;-52
2022/05/27 01:30:31;;;;;;;6.50;5.90;;;13.90;99.90;;;;;;5025815;28;20481;-52
2022/05/27 01:33:08;;;;;;;6.30;5.80;;;13.90;99.90;;;;;;5029654;28;20490;-52
2022/05/27 01:35:43;;;;;;;6.07;5.00;;;13.90;99.90;;;;;;5028059;28;20553;-52
2022/05/27 01:38:17;;;;;;;10.00;6.03;;;13.90;99.90;;;;;;5033419;28;20876;-52
2022/05/27 01:40:51;;;;;;;6.03;5.53;;;13.90;99.90;;;;;;5030458;28;20915;-52
2022/05/27 01:43:22;;;;;;;7.27;6.20;;;13.90;99.90;;;;;;5026668;28;21136;-52
2022/05/27 01:45:55;;;;;;;8.77;6.30;;;13.90;99.90;;;;;;5029352;28;20534;-52
2022/05/27 01:48:27;;;;;;;5.87;5.40;;;13.90;99.90;;;;;;5028077;28;21087;-52
2022/05/27 01:51:01;;;;;;;7.40;6.70;;;13.90;99.90;;;;;;5030223;28;20478;-52
2022/05/27 01:53:34;;;;;;;6.90;6.20;;;13.90;99.90;;;;;;5027987;28;20558;-53
2022/05/27 01:56:07;;;;;;;7.10;6.43;;;13.90;99.90;;;;;;5030045;28;20537;-53
2022/05/27 01:58:38;;;;;;;7.00;6.30;;;13.90;99.90;;;;;;5031575;28;20542;-52
2022/05/27 02:01:11;;;;;;;7.53;6.87;;;13.90;99.90;;;;;;5029009;28;20537;-53
2022/05/27 02:03:43;;;;;;;6.93;6.27;;;13.90;99.90;;;;;;5029817;28;20483;-52
2022/05/27 02:06:14;;;;;;;8.50;6.90;;;13.90;99.90;;;;;;5031770;28;20546;-52
2022/05/27 02:08:47;;;;;;;9.20;7.03;;;13.90;99.90;;;;;;5032288;28;20694;-53
2022/05/27 02:11:17;;;;;;;7.47;6.83;;;13.90;99.90;;;;;;5029048;28;20534;-52
2022/05/27 02:13:48;;;;;;;7.20;6.53;;;13.90;99.90;;;;;;5030398;28;20577;-52
2022/05/27 02:16:20;;;;;;;8.47;7.10;;;13.90;99.90;;;;;;5030857;28;20550;-53
2022/05/27 02:18:50;;;;;;;7.87;7.17;;;13.90;99.90;;;;;;5030839;28;20542;-52
2022/05/27 02:21:22;;;;;;;9.13;7.30;;;13.90;99.90;;;;;;5030776;28;20546;-54
2022/05/27 02:23:53;;;;;;;8.90;7.63;;;13.90;99.90;;;;;;5028879;28;20561;-52
2022/05/27 02:26:23;;;;;;;7.73;7.03;;;13.90;99.90;;;;;;5027214;28;20549;-52
2022/05/27 02:28:53;;;;;;;8.40;7.63;;;13.90;99.90;;;;;;5029893;28;20570;-52
2022/05/27 02:31:26;;;;;;;9.67;7.77;;;13.90;99.90;;;;;;5028369;28;20542;-54
2022/05/27 02:36:45;;;;;;;7.43;6.73;;;13.90;99.90;;;;;;5029410;28;20500;-53
2022/05/27 02:39:12;;;;;;;8.77;7.87;;;13.90;99.90;;;;;;5030006;28;20538;-53
2022/05/27 02:41:44;;;;;;;10.97;8.07;;;14.00;99.90;;;;;;5020951;28;21043;-53
2022/05/27 02:44:23;;;;;;;11.43;7.03;;;14.00;99.90;;;;;;5028946;28;20902;-52
2022/05/27 02:46:58;;;;;;;9.17;7.03;;;14.00;99.90;;;;;;5030057;28;20481;-52
2022/05/27 02:49:30;;;;;;;7.17;6.50;;;13.90;99.90;;;;;;5023559;28;20927;-53
2022/05/27 02:52:06;;;;;;;6.93;6.40;;;13.90;99.90;;;;;;5027030;28;20546;-52
2022/05/27 02:54:42;;;;;;;9.40;6.57;;;14.00;99.90;;;;;;5029990;28;21044;-52
2022/05/27 02:57:15;;;;;;;9.40;6.70;;;14.00;99.90;;;;;;5028142;28;20463;-52
2022/05/27 02:59:42;;;;;;;7.03;6.37;;;14.00;99.90;;;;;;5030580;28;20489;-53
2022/05/27 03:02:13;;;;;;;7.53;5.90;;;14.00;99.90;;;;;;5028576;28;20545;-53
2022/05/27 03:04:42;;;;;;;6.27;5.77;;;13.90;99.90;;;;;;5031154;28;20589;-53
2022/05/27 03:07:22;;;;;;;8.03;5.50;;;13.90;99.90;;;;;;5030583;28;20550;-53
2022/05/27 03:09:54;;;;;;;6.50;4.90;;;13.90;99.90;;;;;;5030520;28;20495;-53
2022/05/27 03:12:34;;;;;;;6.03;5.30;;;13.90;99.90;;;;;;5022999;28;20503;-52
2022/05/27 03:15:14;;;;;;;17.60;6.70;;;13.90;99.90;;;;;;5027333;28;20562;-52
2022/05/27 03:17:58;;;;;;;6.13;4.97;;;13.90;88.50;;;;;;5026702;28;20522;-53
2022/05/27 03:20:42;;;;;;;12.17;5.10;;;13.90;20.00;;;;;;5018698;28;21019;-53
2022/05/27 03:23:29;;;;;;;8.10;6.07;;;13.90;21.30;;;;;;5030247;28;20473;-52
2022/05/27 03:26:09;;;;;;;4.70;4.30;;;13.90;28.10;;;;;;5021777;28;20557;-52
2022/05/27 03:28:43;;;;;;;5.07;4.40;;;13.90;31.40;;;;;;5033827;28;20561;-53
2022/05/27 03:31:15;;;;;;;8.50;4.90;;;13.90;33.80;;;;;;5026399;28;20544;-53
2022/05/27 03:33:50;;;;;;;5.30;4.80;;;13.90;36.70;;;;;;5029547;28;21107;-52
2022/05/27 03:36:21;;;;;;;6.97;4.50;;;13.90;39.00;;;;;;5028859;28;20545;-52
2022/05/27 03:38:55;;;;;;;5.07;4.67;;;13.90;41.10;;;;;;5029351;28;20487;-53
2022/05/27 03:41:26;;;;;;;4.50;4.10;;;13.90;44.40;;;;;;5023652;28;20547;-53
2022/05/27 03:43:54;;;;;;;7.53;4.70;;;13.90;43.80;;;;;;5030466;28;20487;-52
2022/05/27 03:46:29;;;;;;;5.13;4.13;;;13.90;43.90;;;;;;5028547;28;20495;-51
2022/05/27 03:48:57;;;;;;;14.07;6.03;;;13.80;42.80;;;;;;5029316;28;20585;-51
2022/05/27 03:51:27;;;;;;;5.07;4.53;;;13.90;44.00;;;;;;5029150;28;20497;-51
2022/05/27 03:54:05;;;;;;;5.33;4.83;;;13.90;44.00;;;;;;5029645;28;21066;-51
2022/05/27 03:56:33;;;;;;;6.70;4.83;;;13.90;45.40;;;;;;5029042;28;20540;-51
2022/05/27 03:59:00;;;;;;;6.00;4.83;;;13.90;46.60;;;;;;5031427;28;20447;-51
2022/05/27 04:01:29;;;;;;;6.83;5.07;;;13.90;47.60;;;;;;5028818;28;20545;-52
2022/05/27 04:03:58;;;;;;;5.37;4.63;;;13.80;48.20;;;;;;5031414;28;20475;-52
2022/05/27 04:06:25;;;;;;;5.70;4.80;;;13.90;53.00;;;;;;5029184;28;20546;-52
2022/05/27 04:08:51;;;;;;;5.63;4.60;;;13.90;55.40;;;;;;5028187;28;20562;-52
2022/05/27 04:11:18;;;;;;;7.23;4.30;;;13.80;57.40;;;;;;5026311;28;20574;-51
2022/05/27 04:13:44;;;;;;;12.43;3.87;;;13.90;60.00;;;;;;5030425;28;20919;-52
2022/05/27 04:16:11;;;;;;;5.17;4.67;;;13.90;62.60;;;;;;5029235;28;20466;-52
2022/05/27 04:18:37;;;;;;;5.13;4.00;;;13.90;64.80;;;;;;5034027;28;20547;-53
2022/05/27 04:21:05;;;;;;;9.77;4.57;;;13.90;67.20;;;;;;5031861;28;20501;-52
2022/05/27 04:23:32;;;;;;;6.40;4.40;;;13.90;68.40;;;;;;5033360;28;20509;-52
2022/05/27 04:25:58;;;;;;;4.47;4.07;;;13.90;72.00;;;;;;5030454;28;20546;-52
2022/05/27 04:28:25;;;;;;;7.60;5.17;;;13.90;72.10;;;;;;5034954;28;20570;-52
2022/05/27 04:30:51;;;;;;;13.00;6.67;;;13.90;77.30;;;;;;5031434;28;20549;-52
2022/05/27 04:33:18;;;;;;;10.20;4.40;;;13.90;78.20;;;;;;5064457;22;22609;-53
2022/05/27 04:35:45;;;;;;;5.80;4.47;;;13.90;77.80;;;;;;5049749;28;20470;-52
2022/05/27 04:38:14;;;;;;;5.97;4.63;;;14.00;75.90;;;;;;5054603;28;20540;-51
2022/05/27 04:40:40;;;;;;;7.00;5.33;;;14.00;73.30;;;;;;5053818;28;20956;-52
2022/05/27 04:43:07;;;;;;;5.23;4.53;;;14.00;75.40;;;;;;5049941;28;20481;-52
2022/05/27 04:45:35;;;;;;;8.57;4.33;;;14.00;79.50;;;;;;5049804;28;20493;-52
2022/05/27 04:48:01;;;;;;;7.07;4.80;;;14.00;80.50;;;;;;5052732;28;20490;-52
2022/05/27 04:50:28;;;;;;;7.90;4.63;;;14.00;80.30;;;;;;5052467;28;20549;-52
2022/05/27 04:52:55;;;;;;;7.23;4.30;;;14.00;83.30;;;;;;5050440;28;20493;-53
2022/05/27 04:55:23;;;;;;;10.57;5.50;;;14.00;82.80;;;;;;5049241;28;20512;-53
2022/05/27 04:57:52;;;;;;;5.53;4.30;;;14.00;81.90;;;;;;5052667;28;20454;-53
2022/05/27 05:00:21;;;;;;;9.60;5.87;;;14.10;78.50;;;;;;5052900;28;20987;-53
2022/05/27 05:02:48;;;;;;;5.90;4.80;;;14.10;81.80;;;;;;5050931;28;20466;-52
2022/05/27 05:05:17;;;;;;;6.97;5.57;;;14.10;83.80;;;;;;5051695;28;21151;-52
2022/05/27 05:07:46;;;;;;;8.17;6.00;;;14.10;85.40;;;;;;5052003;28;20489;-51
2022/05/27 05:10:15;;;;;;;5.60;5.07;;;14.10;86.80;;;;;;5052974;28;20473;-52
2022/05/27 05:12:43;;;;;;;5.80;5.20;;;14.10;89.10;;;;;;5049680;28;21034;-53
2022/05/27 05:15:11;;;;;;;7.20;5.00;;;14.00;90.30;;;;;;5052979;28;20481;-52
2022/05/27 05:17:37;;;;;;;5.13;4.67;;;14.00;85.30;;;;;;5054644;28;20521;-53
2022/05/27 05:20:05;;;;;;;3.93;3.53;;;13.90;97.00;;;;;;5050913;28;20461;-54
2022/05/27 05:22:32;;;;;;;7.80;4.03;;;13.90;99.90;;;;;;5052397;28;20501;-52
2022/05/27 05:24:59;;;;;;;10.13;4.77;;;13.80;99.90;;;;;;5052790;28;20488;-53
2022/05/27 05:27:28;;;;;;;5.23;3.60;;;13.80;99.90;;;;;;5053414;28;20521;-50
2022/05/27 05:29:57;;;;;;;15.13;4.20;;;13.70;99.90;;;;;;5048292;28;20909;-50
2022/05/27 05:32:24;;;;;;;5.77;3.13;;;13.70;99.90;;;;;;5045994;28;20540;-51
2022/05/27 05:34:51;;;;;;;3.40;3.10;;;13.70;99.90;;;;;;5051972;28;21081;-52
2022/05/27 05:37:17;;;;;;;7.93;3.63;;;13.60;99.90;;;;;;5051847;28;20548;-52
2022/05/27 05:39:44;;;;;;;6.70;3.43;;;13.60;99.90;;;;;;5049453;28;21045;-52
2022/05/27 05:42:11;;;;;;;6.63;3.77;;;13.60;99.90;;;;;;5051030;28;20529;-53
2022/05/27 05:44:39;;;;;;;3.60;3.33;;;13.60;99.90;;;;;;5049304;28;21015;-53
2022/05/27 05:47:07;;;;;;;8.03;3.63;;;13.60;99.90;;;;;;5049947;28;20557;-51
2022/05/27 05:49:34;;;;;;;6.03;3.67;;;13.70;99.90;;;;;;5052636;28;20513;-50
2022/05/27 05:52:01;;;;;;;9.27;4.07;;;13.60;99.90;;;;;;5050899;28;20498;-53
2022/05/27 05:54:29;;;;;;;4.70;3.30;;;13.60;99.90;;;;;;5053436;28;20499;-54
2022/05/27 05:56:57;;;;;;;7.47;3.50;;;13.70;99.90;;;;;;5047991;28;20462;-54
2022/05/27 05:59:23;;;;;;;3.80;3.50;;;13.80;99.90;;;;;;5053143;28;20426;-53
2022/05/27 06:01:50;;;;;;;9.30;5.17;;;13.70;99.90;;;;;;5048526;28;20466;-53
2022/05/27 06:04:18;;;;;;;7.00;3.23;;;13.80;99.90;;;;;;5051777;28;20565;-53
2022/05/27 06:06:44;;;;;;;8.60;3.70;;;13.80;99.90;;;;;;5049928;28;22126;-54
2022/05/27 06:09:11;;;;;;;4.17;3.00;;;13.80;99.90;;;;;;5051797;28;20909;-53
2022/05/27 06:11:37;;;;;;;6.27;3.90;;;13.80;99.90;;;;;;5049802;28;20880;-54
2022/05/27 06:14:04;;;;;;;6.70;3.53;;;13.80;99.90;;;;;;5052319;28;20465;-54
2022/05/27 06:16:31;;;;;;;6.93;2.93;;;13.90;99.90;;;;;;5047523;28;20515;-54
2022/05/27 06:18:58;;;;;;;5.60;3.13;;;13.90;99.90;;;;;;5041667;28;20519;-53
2022/05/27 06:21:26;;;;;;;9.17;3.43;;;13.90;99.90;;;;;;5050067;28;21062;-53
2022/05/27 06:23:53;;;;;;;10.67;3.53;;;14.00;99.90;;;;;;5047475;28;20513;-53
2022/05/27 06:26:20;;;;;;;3.90;2.67;;;14.10;99.90;;;;;;5044314;28;20470;-52
2022/05/27 06:34:26;;;;;;;3.90;2.23;;;14.30;28.00;;;;;;5049331;28;20564;-52
2022/05/27 06:36:57;;;;;;;12.13;2.73;;;14.30;49.40;;;;;;5049012;28;20536;-51
2022/05/27 06:39:25;;;;;;;10.27;2.67;;;14.40;54.10;;;;;;5044191;28;20431;-52
2022/05/27 06:41:52;;;;;;;10.57;2.33;;;14.30;56.00;;;;;;5045745;28;20548;-52
2022/05/27 06:44:19;;;;;;;7.50;2.47;;;14.40;56.80;;;;;;5052600;28;20927;-54
2022/05/27 06:46:49;;;;;;;6.03;3.17;;;14.40;90.10;;;;;;5044634;28;20478;-54
2022/05/27 06:49:16;;;;;;;11.83;2.73;;;14.50;99.90;;;;;;5051877;28;20485;-53
2022/05/27 06:51:43;;;;;;;6.97;2.53;;;14.50;99.90;;;;;;5049815;28;20462;-52
2022/05/27 06:54:11;;;;;;;4.33;2.40;;;14.40;99.90;;;;;;5052154;28;20540;-52
2022/05/27 06:56:39;;;;;;;5.67;2.30;;;14.50;99.90;;;;;;5050172;28;20912;-52
2022/05/27 06:59:07;;;;;;;10.47;2.40;;;14.50;99.90;;;;;;5051500;28;20533;-52
2022/05/27 07:01:34;;;;;;;11.30;2.60;;;14.50;99.90;;;;;;5048551;28;20497;-51
2022/05/27 07:04:01;;;;;;;5.87;2.47;;;14.60;39.30;;;;;;5050851;28;20565;-52
2022/05/27 07:06:32;;;;;;;11.23;2.93;;;14.60;41.10;;;;;;5043399;28;20977;-51
2022/05/27 07:09:03;;;;;;;6.50;2.17;;;14.70;20.40;;;;;;5047045;28;20480;-52
2022/05/27 07:11:31;;;;;;;8.87;2.90;;;14.70;27.90;;;;;;5048771;28;20466;-52
2022/05/27 07:13:57;;;;;;;5.70;2.60;;;14.80;52.40;;;;;;5050686;28;20509;-51
2022/05/27 07:16:24;;;;;;;4.03;1.90;;;14.80;74.50;;;;;;5050021;28;20494;-52
2022/05/27 07:18:50;;;;;;;9.50;2.37;;;14.90;99.90;;;;;;5050167;28;20446;-52
2022/05/27 07:21:17;;;;;;;10.33;2.00;;;14.90;99.90;;;;;;5038268;28;20537;-51
2022/05/27 07:23:44;;;;;;;6.27;2.13;;;15.00;99.90;;;;;;5044709;28;20932;-52
2022/05/27 07:26:11;;;;;;;7.07;2.47;;;15.00;99.90;;;;;;5046285;28;20504;-50
2022/05/27 07:28:39;;;;;;;2.90;1.70;;;15.00;99.90;;;;;;5056798;28;20542;-50
2022/05/27 07:31:06;;;;;;;5.97;2.00;;;15.00;99.90;;;;;;5055846;28;21461;-51
2022/05/27 07:33:32;;;;;;;3.13;2.10;;;15.10;99.90;;;;;;5050270;28;20493;-50
2022/05/27 07:35:59;;;;;;;3.47;1.90;;;15.10;99.90;;;;;;5049420;28;20453;-50
2022/05/27 07:38:25;;;;;;;6.10;2.60;;;15.20;99.90;;;;;;5047096;28;20511;-51
2022/05/27 07:40:52;;;;;;;6.13;2.40;;;15.20;99.90;;;;;;5049900;28;20493;-52
2022/05/27 07:43:20;;;;;;;4.90;2.00;;;15.20;99.90;;;;;;5044914;28;20478;-54
2022/05/27 07:45:49;;;;;;;3.70;2.40;;;15.20;99.90;;;;;;5050116;28;20503;-53
2022/05/27 07:48:15;;;;;;;4.43;2.50;;;15.20;99.90;;;;;;5050462;28;20461;-52
2022/05/27 07:50:42;;;;;;;4.93;2.30;;;15.20;99.90;;;;;;5048776;28;20576;-53
2022/05/27 07:53:09;;;;;;;6.50;2.50;;;15.20;99.90;;;;;;5063840;28;20465;-52
2022/05/27 07:55:35;;;;;;;9.70;2.07;;;15.30;99.90;;;;;;5056185;28;20553;-53
2022/05/27 07:58:02;;;;;;;14.07;2.10;;;15.30;99.90;;;;;;5053251;28;20545;-53
2022/05/27 08:00:32;;;;;;;2.37;1.77;;;15.40;99.90;;;;;;5054531;28;20548;-53
2022/05/27 08:03:00;;;;;;;9.00;2.40;;;15.50;99.90;;;;;;5053309;28;20489;-52
2022/05/27 08:05:29;;;;;;;17.03;2.50;;;15.50;99.90;;;;;;5052837;28;20465;-53
2022/05/27 08:07:58;;;;;;;10.40;2.60;;;15.40;99.90;;;;;;5054922;28;20970;-53
2022/05/27 08:10:26;;;;;;;6.37;2.13;;;15.30;99.90;;;;;;5049325;28;20608;-52
2022/05/27 08:12:53;;;;;;;6.07;2.50;;;15.20;99.90;;;;;;5053465;28;20500;-53
2022/05/27 08:15:20;;;;;;;4.70;1.97;;;15.20;99.90;;;;;;5053701;28;20509;-53
2022/05/27 08:17:47;;;;;;;14.60;2.97;;;15.10;99.90;;;;;;5053870;28;20497;-52
2022/05/27 08:20:18;;;;;;;5.37;2.60;;;15.10;99.90;;;;;;5052214;28;20522;-54
2022/05/27 08:22:45;;;;;;;8.53;2.97;;;15.10;99.90;;;;;;5053488;28;20445;-53
2022/05/27 08:25:11;;;;;;;4.93;2.43;;;15.10;99.90;;;;;;5051412;28;20894;-52
2022/05/27 08:27:39;;;;;;;5.27;2.40;;;15.20;99.90;;;;;;5053786;28;20465;-52
2022/05/27 08:30:08;;;;;;;10.27;2.30;;;15.30;99.90;;;;;;5052089;28;20858;-52
2022/05/27 08:32:35;;;;;;;3.87;1.87;;;15.40;99.90;;;;;;5051639;28;20551;-52
2022/05/27 08:38:05;;;;;;;7.50;2.63;;;15.70;99.90;;;;;;5052836;28;20578;-52
2022/05/27 08:40:48;;;;;;;8.13;2.90;;;16.00;99.90;;;;;;5051448;28;20468;-51
2022/05/27 08:43:22;;;;;;;5.80;2.40;;;16.00;99.90;;;;;;5051348;28;20519;-53
2022/05/27 08:45:58;;;;;;;5.23;2.07;;;16.00;99.90;;;;;;5046150;28;20836;-52
2022/05/27 08:48:28;;;;;;;10.20;2.40;;;15.90;99.90;;;;;;5046398;28;20958;-53
2022/05/27 08:50:59;;;;;;;3.77;1.90;;;15.80;99.90;;;;;;5051977;28;20556;-53
2022/05/27 08:53:34;;;;;;;11.60;2.57;;;15.70;99.90;;;;;;5050630;28;20481;-53
2022/05/27 09:01:51;;;;;;;6.33;2.53;;;15.40;99.90;;;;;;5047562;28;20628;-53
2022/05/27 09:04:25;;;;;;;11.73;2.87;;;15.40;99.90;;;;;;5052309;28;20484;-53
2022/05/27 09:07:07;;;;;;;16.53;2.77;;;15.50;99.90;;;;;;5054245;28;20446;-53
2022/05/27 09:09:38;;;;;;;7.87;2.97;;;15.40;99.90;;;;;;5054625;28;20470;-53
2022/05/27 09:12:31;;;;;;;8.00;2.37;;;15.40;99.90;;;;;;5052619;28;20916;-54
2022/05/27 09:15:04;;;;;;;8.97;2.40;;;15.50;99.90;;;;;;5053180;28;21026;-54
2022/05/27 09:17:41;;;;;;;17.50;3.07;;;15.50;99.90;;;;;;5053457;28;20615;-54
2022/05/27 09:20:21;;;;;;;8.97;2.73;;;15.40;99.90;;;;;;5051171;28;20512;-52
2022/05/27 09:22:56;;;;;;;9.10;2.23;;;15.60;99.90;;;;;;5053368;28;20454;-54
2022/05/27 09:25:32;;;;;;;4.53;2.10;;;15.80;99.90;;;;;;5053038;28;21021;-54
2022/05/27 09:28:08;;;;;;;9.67;1.77;;;16.10;99.90;;;;;;5054607;28;20511;-54
2022/05/27 09:30:36;;;;;;;10.90;2.70;;;16.30;99.90;;;;;;5054307;28;20489;-54
2022/05/27 09:33:06;;;;;;;6.10;2.20;;;16.40;99.90;;;;;;5053158;28;20449;-53
2022/05/27 09:35:37;;;;;;;9.00;2.77;;;16.50;99.90;;;;;;5058196;28;20526;-53
2022/05/27 09:38:06;;;;;;;4.60;1.80;;;16.80;99.90;;;;;;5055989;28;20447;-54
2022/05/27 09:40:39;;;;;;;4.97;2.40;;;16.60;99.90;;;;;;5058135;28;20474;-53
2022/05/27 09:43:12;;;;;;;9.67;2.13;;;16.70;99.90;;;;;;5055707;28;20909;-57
2022/05/27 09:45:40;;;;;;;6.50;2.00;;;16.80;99.90;;;;;;5057063;28;20473;-53
2022/05/27 09:48:08;;;;;;;8.17;2.10;;;16.80;99.90;;;;;;5057442;28;20462;-54
2022/05/27 09:50:40;;;;;;;5.67;2.93;;;16.60;99.90;;;;;;5053756;28;20478;-54
2022/05/27 09:53:08;;;;;;;7.23;2.30;;;16.70;99.90;;;;;;5053756;28;20552;-54
2022/05/27 09:55:41;;;;;;;11.20;3.80;;;16.80;99.90;;;;;;5056177;28;20446;-54
2022/05/27 09:58:08;;;;;;;6.10;2.27;;;17.00;99.90;;;;;;5056167;28;20481;-53
2022/05/27 10:00:42;;;;;;;8.13;2.40;;;17.20;99.90;;;;;;5055266;28;20534;-54
2022/05/27 10:03:27;;;;;;;9.67;2.37;;;17.40;99.90;;;;;;5056844;28;20501;-54
2022/05/27 10:05:57;;;;;;;6.67;2.13;;;17.40;99.90;;;;;;5055726;28;20485;-57
2022/05/27 10:08:34;;;;;;;9.00;2.50;;;17.40;99.90;;;;;;5057936;28;20453;-53
2022/05/27 10:11:15;;;;;;;4.07;2.53;;;17.40;99.90;;;;;;5035089;28;20482;-54
2022/05/27 10:13:43;;;;;;;6.60;2.17;;;17.40;99.90;;;;;;5040338;28;20509;-54
2022/05/27 10:16:12;;;;;;;10.63;2.40;;;17.30;99.90;;;;;;5056061;28;21030;-54
2022/05/27 10:18:40;;;;;;;6.70;1.80;;;17.30;99.90;;;;;;5057427;28;20540;-54
2022/05/27 10:21:13;;;;;;;3.73;1.83;;;17.40;99.90;;;;;;5054841;28;20995;-55
2022/05/27 10:23:42;;;;;;;2.70;1.63;;;17.50;99.90;;;;;;5056593;28;20472;-53
2022/05/27 10:26:29;;;;;;;9.07;2.90;;;17.80;99.90;;;;;;5056593;28;20783;-53
2022/05/27 10:28:59;;;;;;;5.40;1.93;;;17.70;99.90;;;;;;5055018;28;20507;-59
2022/05/27 10:31:26;;;;;;;5.93;2.10;;;17.80;99.90;;;;;;5055589;28;20592;-54
2022/05/27 10:33:53;;;;;;;3.83;2.00;;;17.80;99.90;;;;;;5069040;22;20579;-52
2022/05/27 10:36:46;;;;;;;3.97;2.10;;;17.70;99.90;;;;;;5024345;28;20442;-52
2022/05/27 10:39:24;;;;;;;8.60;2.00;;;17.40;99.90;;;;;;5013150;28;20440;-52
2022/05/27 10:42:20;;;;;;;7.10;2.03;;;17.10;99.90;;;;;;5012033;28;20988;-53
2022/05/27 10:45:02;;;;;;;7.70;2.80;;;16.90;99.90;;;;;;5020970;28;20514;-52
2022/05/27 10:47:44;;;;;;;8.33;2.17;;;16.80;99.90;;;;;;5030885;28;21023;-52
2022/05/27 10:50:19;;;;;;;8.13;2.77;;;17.00;99.90;;;;;;5032204;28;20518;-53
2022/05/27 10:53:02;;;;;;;8.10;2.47;;;17.10;99.90;;;;;;5031591;28;20525;-52
2022/05/27 10:55:38;;;;;;;11.80;2.63;;;17.30;99.90;;;;;;5033056;28;20481;-52
2022/05/27 11:04:29;;;;;;;7.67;2.70;;;17.70;99.90;;;;;;5030623;28;20454;-51
2022/05/27 11:07:07;;;;;;;10.40;2.00;;;17.50;99.90;;;;;;5031389;28;20449;-51
2022/05/27 11:09:43;;;;;;;6.53;2.23;;;17.50;99.90;;;;;;5031438;28;20856;-52
2022/05/27 11:12:17;;;;;;;13.40;3.00;;;17.70;99.90;;;;;;5031343;28;20896;-51
2022/05/27 11:15:10;;;;;;;4.47;2.50;;;18.00;99.90;;;;;;5031338;28;20568;-52
2022/05/27 11:17:48;;;;;;;5.27;2.07;;;18.10;99.90;;;;;;5025640;28;20458;-52
2022/05/27 11:20:31;;;;;;;6.20;1.90;;;18.20;99.90;;;;;;5032411;28;20435;-52
2022/05/27 11:23:08;;;;;;;6.63;2.80;;;18.10;99.90;;;;;;5031774;28;20489;-51
2022/05/27 11:25:51;;;;;;;3.10;1.70;;;18.10;99.90;;;;;;5031505;28;20478;-52
2022/05/27 11:28:38;;;;;;;6.60;2.20;;;18.30;99.90;;;;;;5031972;28;20466;-53
2022/05/27 11:31:20;;;;;;;10.40;3.00;;;18.30;99.90;;;;;;5030788;28;20564;-51
2022/05/27 11:33:55;;;;;;;14.23;2.03;;;18.40;99.90;;;;;;5029454;28;20490;-51
2022/05/27 11:36:33;;;;;;;10.10;2.10;;;18.50;99.90;;;;;;5031702;28;20538;-50
2022/05/27 11:39:34;;;;;;;7.30;2.40;;;18.50;99.90;;;;;;5031978;28;20513;-50
2022/05/27 11:42:12;;;;;;;7.00;1.67;;;18.50;99.90;;;;;;5029556;28;20914;-51
2022/05/27 11:44:44;;;;;;;13.33;2.70;;;18.50;99.90;;;;;;5036265;28;20470;-51
2022/05/27 11:47:55;;;;;;;5.43;2.23;;;18.60;99.90;;;;;;5030536;28;20462;-50
2022/05/27 11:50:42;;;;;;;13.87;2.20;;;18.40;99.90;;;;;;4971513;28;20477;-51
2022/05/27 11:53:21;;;;;;;12.00;2.70;;;18.40;99.90;;;;;;5021446;28;20538;-51
2022/05/27 11:55:56;;;;;;;6.20;2.33;;;18.40;99.90;;;;;;5030984;28;20497;-51
2022/05/27 11:58:27;;;;;;;8.27;2.40;;;18.30;99.90;;;;;;5023906;28;20485;-51
2022/05/27 12:00:58;;;;;;;16.83;2.23;;;18.10;99.90;;;;;;5030750;28;20443;-51
2022/05/27 12:03:35;;;;;;;18.33;2.43;;;18.10;99.90;;;;;;5034715;28;20566;-51
2022/05/27 12:06:07;;;;;;;10.37;2.40;;;17.90;99.90;;;;;;5031199;28;20469;-51
2022/05/27 12:08:38;;;;;;;6.67;2.07;;;17.80;99.90;;;;;;5031820;28;20514;-51
2022/05/27 12:11:11;;;;;;;18.23;2.57;;;17.70;99.90;;;;;;5029739;28;20573;-51
2022/05/27 12:13:47;;;;;;;10.73;2.00;;;17.80;99.90;;;;;;5022915;28;21009;-52
2022/05/27 12:16:15;;;;;;;8.20;2.40;;;17.90;99.90;;;;;;5031433;28;20977;-50
2022/05/27 12:18:47;;;;;;;8.70;2.30;;;17.90;99.90;;;;;;5030615;28;20542;-51
2022/05/27 12:21:17;;;;;;;12.47;2.70;;;17.80;99.90;;;;;;5030751;28;20867;-51
2022/05/27 12:23:49;;;;;;;18.77;3.00;;;17.70;99.90;;;;;;5031707;28;20545;-51
2022/05/27 12:26:19;;;;;;;5.23;2.83;;;17.50;99.90;;;;;;5030572;28;20466;-50
2022/05/27 12:28:47;;;;;;;6.53;1.77;;;17.40;99.90;;;;;;5031218;28;20478;-51
2022/05/27 12:31:14;;;;;;;20.43;2.77;;;17.20;99.90;;;;;;5030415;28;21307;-50
2022/05/27 12:33:40;;;;;;;6.90;2.10;;;17.00;99.90;;;;;;5034875;28;20493;-51
2022/05/27 12:36:14;;;;;;;10.23;2.60;;;17.00;99.90;;;;;;5030906;28;20999;-50
2022/05/27 12:38:47;;;;;;;7.80;2.10;;;16.90;99.90;;;;;;5033465;28;20899;-51
2022/05/27 12:41:18;;;;;;;16.70;2.43;;;16.70;99.90;;;;;;5032363;28;20501;-51
2022/05/27 12:43:58;;;;;;;10.50;2.70;;;16.40;99.90;;;;;;5035073;28;20509;-51
2022/05/27 12:46:32;;;;;;;14.93;3.17;;;16.20;99.90;;;;;;5034843;28;20450;-51
2022/05/27 12:49:25;;;;;;;7.20;2.60;;;16.10;99.90;;;;;;5033517;28;20497;-51
2022/05/27 12:51:54;;;;;;;4.17;2.03;;;16.30;99.90;;;;;;5034053;28;20573;-50
2022/05/27 12:54:58;;;;;;;6.13;2.60;;;16.40;99.90;;;;;;5033368;28;20519;-51
2022/05/27 13:03:48;;;;;;;4.73;2.50;;;17.10;99.90;;;;;;5033027;28;20862;-51
2022/05/27 13:06:35;;;;;;;7.90;2.70;;;17.40;99.90;;;;;;5034145;28;20447;-51
2022/05/27 13:09:06;;;;;;;4.53;2.53;;;17.60;99.90;;;;;;5032759;28;20493;-52
2022/05/27 13:11:46;;;;;;;14.90;2.70;;;17.70;99.90;;;;;;5033555;28;20565;-51
2022/05/27 13:14:18;;;;;;;6.10;1.80;;;17.90;99.90;;;;;;5033907;28;20500;-51
2022/05/27 13:16:49;;;;;;;6.97;2.27;;;18.10;99.90;;;;;;5033271;28;21000;-51
2022/05/27 13:19:28;;;;;;;9.30;3.23;;;18.20;99.90;;;;;;5034094;28;20534;-51
2022/05/27 13:21:56;;;;;;;7.23;2.13;;;18.30;99.90;;;;;;5033519;28;20443;-51
2022/05/27 13:24:30;;;;;;;10.43;2.20;;;18.40;99.90;;;;;;5034141;28;20549;-51
2022/05/27 13:27:01;;;;;;;23.63;2.60;;;18.50;99.90;;;;;;5034188;28;20438;-52
2022/05/27 13:29:33;;;;;;;8.07;2.43;;;18.80;99.90;;;;;;5034156;28;20483;-52
2022/05/27 13:32:06;;;;;;;6.77;3.20;;;18.70;99.90;;;;;;5031479;28;20528;-51
2022/05/27 13:34:41;;;;;;;12.83;2.27;;;18.50;99.90;;;;;;5032908;28;20574;-52
2022/05/27 13:37:16;;;;;;;9.60;2.37;;;18.30;99.90;;;;;;5034170;28;20445;-52
2022/05/27 13:39:54;;;;;;;12.83;2.53;;;18.40;99.90;;;;;;5033860;28;20542;-51
2022/05/27 13:42:29;;;;;;;9.57;2.00;;;18.50;99.90;;;;;;5033168;28;20514;-51